createdAt,value
2023-03-11T00:01:27.859Z,12.48
2023-03-11T00:06:36.464Z,12.75
2023-03-11T00:11:41.981Z,15.30
2023-03-11T00:16:47.618Z,12.20
2023-03-11T00:21:53.240Z,11.85
2023-03-11T00:26:58.927Z,15.43
2023-03-11T00:32:04.620Z,12.68
2023-03-11T00:37:10.144Z,12.93
2023-03-11T00:42:15.637Z,14.82
2023-03-11T00:47:21.259Z,11.65
2023-03-11T00:52:26.788Z,10.02
2023-03-11T00:57:32.564Z,9.35
2023-03-11T01:02:39.551Z,11.13
2023-03-11T01:07:45.047Z,10.32
2023-03-11T01:12:50.585Z,8.95
2023-03-11T01:17:55.949Z,10.35
2023-03-11T01:23:01.580Z,8.88
2023-03-11T01:28:08.973Z,10.15
2023-03-11T01:33:17.596Z,9.27
2023-03-11T01:38:23.113Z,10.10
2023-03-11T01:43:43.501Z,9.38
2023-03-11T01:49:13.929Z,12.38
2023-03-11T01:54:36.790Z,15.48
2023-03-11T01:59:52.545Z,16.00
2023-03-11T02:04:58.381Z,16.30
2023-03-11T02:10:05.431Z,19.27
2023-03-11T02:15:12.661Z,17.38
2023-03-11T02:20:38.799Z,16.52
2023-03-11T02:26:19.593Z,17.90
2023-03-11T02:31:26.752Z,15.90
2023-03-11T02:36:41.362Z,13.38
2023-03-11T02:41:52.597Z,16.40
2023-03-11T02:47:01.718Z,16.08
2023-03-11T02:57:13.809Z,12.88
2023-03-11T03:02:19.889Z,14.82
2023-03-11T03:07:26.325Z,15.63
2023-03-11T03:12:33.811Z,12.48
2023-03-11T03:17:39.989Z,9.75
2023-03-11T03:22:46.166Z,11.68
2023-03-11T03:33:00.458Z,8.77
2023-03-11T03:38:07.247Z,9.98
2023-03-11T03:43:12.899Z,8.50
2023-03-11T03:48:20.841Z,12.05
2023-03-11T03:53:26.450Z,8.52
2023-03-11T03:58:32.167Z,7.38
2023-03-11T04:03:39.666Z,7.25
2023-03-11T04:08:52.890Z,8.00
2023-03-11T04:14:05.051Z,8.55
2023-03-11T04:19:16.391Z,6.88
2023-03-11T04:24:22.403Z,8.07
2023-03-11T04:29:28.108Z,8.27
2023-03-11T04:34:34.110Z,8.75
2023-03-11T04:39:40.078Z,9.93
2023-03-11T04:44:46.068Z,10.30
2023-03-11T04:49:52.212Z,8.20
2023-03-11T04:54:57.643Z,10.55
2023-03-11T05:00:11.427Z,10.10
2023-03-11T05:05:22.297Z,8.90
2023-03-11T05:10:28.568Z,8.85
2023-03-11T05:15:38.131Z,6.65
2023-03-11T05:20:44.785Z,6.97
2023-03-11T05:25:52.009Z,7.50
2023-03-11T05:30:57.832Z,7.60
2023-03-11T05:36:09.036Z,7.03
2023-03-11T05:41:16.853Z,6.78
2023-03-11T05:46:23.606Z,5.47
2023-03-11T05:51:30.003Z,5.30
2023-03-11T05:56:35.633Z,4.90
2023-03-11T06:01:43.800Z,6.47
2023-03-11T06:06:49.842Z,7.28
2023-03-11T06:12:00.627Z,7.60
2023-03-11T06:17:17.499Z,8.65
2023-03-11T06:22:23.194Z,8.38
2023-03-11T06:27:28.661Z,7.70
2023-03-11T06:32:36.098Z,7.22
2023-03-11T06:37:42.031Z,6.70
2023-03-11T06:42:48.472Z,9.18
2023-03-11T06:47:55.362Z,8.35
2023-03-11T06:53:01.010Z,8.20
2023-03-11T06:58:06.612Z,9.75
2023-03-11T10:39:03.036Z,14.50
2023-03-11T10:44:21.431Z,18.85
2023-03-11T10:49:26.739Z,12.13
2023-03-11T10:54:35.986Z,13.18
2023-03-11T10:59:51.259Z,14.27
2023-03-11T11:05:41.256Z,13.80
2023-03-11T11:10:58.263Z,12.48
2023-03-11T11:16:17.994Z,12.30
2023-03-11T11:21:44.152Z,13.40
2023-03-11T11:27:17.415Z,8.13
2023-03-11T11:32:27.268Z,10.80
2023-03-11T11:37:35.581Z,11.63
2023-03-11T11:42:47.497Z,11.70
2023-03-11T11:47:59.421Z,13.80
2023-03-11T11:53:44.551Z,13.98
2023-03-11T11:58:49.683Z,14.40
2023-03-11T12:04:39.390Z,10.65
2023-03-11T12:10:23.707Z,12.65
2023-03-11T12:15:41.402Z,14.77
2023-03-11T12:20:50.961Z,13.68
2023-03-11T12:25:55.935Z,11.70
2023-03-11T12:31:08.150Z,12.57
2023-03-11T12:36:33.335Z,11.32
2023-03-11T12:41:45.629Z,11.77
2023-03-11T12:47:00.352Z,11.10
2023-03-11T12:52:15.004Z,12.27
2023-03-11T12:57:20.018Z,10.52
2023-03-11T13:02:45.189Z,15.23
2023-03-11T13:07:54.619Z,13.38
2023-03-11T13:12:59.943Z,14.98
2023-03-11T13:18:16.192Z,13.43
2023-03-11T13:23:29.344Z,12.63
2023-03-11T13:29:05.485Z,12.55
2023-03-11T13:34:23.589Z,13.82
2023-03-11T13:39:57.028Z,13.05
2023-03-11T13:45:02.008Z,13.95
2023-03-11T13:50:29.576Z,13.73
2023-03-11T13:55:47.099Z,12.32
2023-03-11T14:00:54.627Z,12.40
2023-03-11T14:06:05.732Z,12.55
2023-03-11T14:11:12.781Z,13.20
2023-03-11T14:16:36.522Z,17.75
2023-03-11T14:21:50.529Z,13.93
2023-03-11T14:32:01.158Z,12.77
2023-03-11T14:37:35.562Z,12.43
2023-03-11T14:42:42.189Z,12.77
2023-03-11T14:48:10.279Z,12.80
2023-03-11T14:53:31.893Z,13.82
2023-03-11T14:58:51.094Z,13.65
2023-03-11T15:04:22.886Z,14.23
2023-03-11T15:09:30.294Z,12.27
2023-03-11T15:14:38.075Z,11.07
2023-03-11T15:19:43.270Z,10.23
2023-03-11T15:24:57.834Z,10.68
2023-03-11T15:30:06.489Z,11.23
2023-03-11T15:35:17.460Z,11.40
2023-03-11T15:40:44.433Z,9.00
2023-03-11T15:45:54.877Z,9.93
2023-03-11T15:51:01.663Z,9.43
2023-03-11T15:56:15.481Z,11.35
2023-03-11T16:01:24.259Z,10.57
2023-03-11T16:06:29.568Z,12.20
2023-03-11T16:11:36.453Z,11.77
2023-03-11T16:16:41.374Z,12.45
2023-03-11T16:21:50.864Z,13.48
2023-03-11T16:26:56.121Z,11.50
2023-03-11T16:32:00.169Z,11.02
2023-03-11T16:37:09.241Z,10.25
2023-03-11T16:42:13.455Z,12.55
2023-03-11T16:47:19.777Z,12.95
2023-03-11T16:52:24.342Z,10.52
2023-03-11T16:57:29.382Z,12.73
2023-03-11T17:02:35.071Z,12.27
2023-03-11T17:07:41.254Z,12.90
2023-03-11T17:12:46.592Z,11.27
2023-03-11T17:17:52.110Z,12.75
2023-03-11T17:22:57.124Z,12.18
2023-03-11T17:28:02.424Z,12.02
2023-03-11T17:33:07.625Z,10.50
2023-03-11T17:38:14.715Z,15.25
2023-03-11T17:43:24.662Z,14.95
2023-03-11T17:48:29.989Z,14.20
2023-03-11T17:53:36.491Z,13.75
2023-03-11T17:58:41.642Z,12.65
2023-03-11T18:03:46.963Z,14.18
2023-03-11T18:08:52.038Z,9.02
2023-03-11T18:13:56.177Z,8.70
2023-03-11T18:19:01.425Z,14.02
2023-03-11T18:24:06.974Z,13.45
2023-03-11T18:29:11.979Z,13.82
2023-03-11T18:34:17.022Z,14.10
2023-03-11T18:39:22.615Z,12.77
2023-03-11T18:44:28.436Z,15.90
2023-03-11T18:49:33.501Z,14.82
2023-03-11T18:54:39.190Z,15.30
2023-03-11T18:59:44.452Z,15.32
2023-03-11T19:04:49.819Z,12.93
2023-03-11T19:09:55.362Z,14.02
2023-03-11T19:15:00.330Z,15.25
2023-03-11T19:20:11.398Z,13.45
2023-03-11T19:25:15.555Z,12.82
2023-03-11T19:30:22.003Z,14.30
2023-03-11T19:35:26.965Z,14.48
2023-03-11T19:40:34.001Z,15.77
2023-03-11T19:45:40.430Z,14.60
2023-03-11T19:50:45.797Z,17.20
2023-03-11T19:55:57.112Z,15.50
2023-03-11T20:01:27.073Z,16.13
2023-03-11T20:06:31.284Z,18.67
2023-03-11T20:11:41.031Z,16.85
2023-03-11T20:16:46.484Z,16.60
2023-03-11T20:21:51.526Z,17.65
2023-03-11T20:26:55.788Z,17.05
2023-03-11T20:32:00.615Z,18.63
2023-03-11T20:37:05.987Z,24.50
2023-03-11T20:42:11.469Z,22.65
2023-03-11T20:47:17.193Z,18.67
2023-03-11T20:52:22.531Z,18.50
2023-03-11T20:57:27.566Z,19.70
2023-03-11T21:02:35.382Z,20.15
2023-03-11T21:12:45.973Z,23.55
2023-03-11T21:17:50.129Z,27.10
2023-03-11T21:22:55.499Z,24.55
2023-03-11T21:28:00.658Z,24.02
2023-03-11T21:33:06.231Z,28.77
2023-03-11T21:38:11.698Z,24.95
2023-03-11T21:43:17.691Z,25.92
2023-03-11T21:48:23.321Z,26.70
2023-03-11T21:53:31.296Z,28.38
2023-03-11T22:03:42.612Z,25.85
2023-03-11T22:08:48.181Z,22.70
2023-03-11T22:13:55.074Z,28.38
2023-03-11T22:19:00.141Z,26.80
2023-03-11T22:24:07.007Z,28.38
2023-03-11T22:29:13.750Z,22.17
2023-03-11T22:34:17.951Z,24.23
2023-03-11T22:39:22.479Z,32.25
2023-03-11T22:44:29.830Z,33.65
2023-03-11T22:49:35.302Z,32.38
2023-03-11T22:54:41.037Z,47.35
2023-03-11T22:59:46.172Z,52.42
2023-03-11T23:04:51.606Z,57.70
2023-03-11T23:09:56.570Z,69.22
2023-03-11T23:15:03.877Z,41.70
2023-03-11T23:20:14.322Z,56.45
2023-03-11T23:25:21.889Z,86.30
2023-03-11T23:30:27.854Z,73.68
2023-03-11T23:35:34.106Z,94.90
2023-03-11T23:40:42.191Z,118.22
2023-03-11T23:45:48.299Z,90.60
2023-03-11T23:50:54.735Z,77.03
2023-03-11T23:55:59.044Z,67.35
